sensor_id;sensor_type;location;lat;lon;timestamp;temperature;humidity
1107;DHT22;540;49.448;8.612;2022-10-15T00:00:11;15.40;99.90
1107;DHT22;540;49.448;8.612;2022-10-15T00:02:39;15.30;99.90
1107;DHT22;540;49.448;8.612;2022-10-15T00:05:07;15.10;99.90
1107;DHT22;540;49.448;8.612;2022-10-15T00:07:35;15.50;99.90
1107;DHT22;540;49.448;8.612;2022-10-15T00:10:03;15.70;99.90
1107;DHT22;540;49.448;8.612;2022-10-15T00:12:31;15.40;99.90
1107;DHT22;540;49.448;8.612;2022-10-15T00:15:00;15.40;99.90
1107;DHT22;540;49.448;8.612;2022-10-15T00:17:28;15.50;99.90
1107;DHT22;540;49.448;8.612;2022-10-15T00:19:56;15.50;99.90
1107;DHT22;540;49.448;8.612;2022-10-15T00:22:23;15.30;99.90
1107;DHT22;540;49.448;8.612;2022-10-15T00:24:51;15.50;99.90
1107;DHT22;540;49.448;8.612;2022-10-15T00:27:19;15.30;99.90
1107;DHT22;540;49.448;8.612;2022-10-15T00:29:47;15.20;99.90
1107;DHT22;540;49.448;8.612;2022-10-15T00:32:16;15.60;99.90
1107;DHT22;540;49.448;8.612;2022-10-15T00:34:44;15.50;99.90
1107;DHT22;540;49.448;8.612;2022-10-15T00:37:12;15.50;99.90
1107;DHT22;540;49.448;8.612;2022-10-15T00:39:40;15.40;99.90
1107;DHT22;540;49.448;8.612;2022-10-15T00:42:09;15.30;99.90
1107;DHT22;540;49.448;8.612;2022-10-15T00:44:48;15.50;99.90
1107;DHT22;540;49.448;8.612;2022-10-15T00:47:27;15.60;99.90
1107;DHT22;540;49.448;8.612;2022-10-15T00:49:59;15.40;99.90
1107;DHT22;540;49.448;8.612;2022-10-15T00:52:33;15.40;99.90
1107;DHT22;540;49.448;8.612;2022-10-15T00:55:05;15.60;99.90
1107;DHT22;540;49.448;8.612;2022-10-15T00:57:33;15.40;99.90
1107;DHT22;540;49.448;8.612;2022-10-15T01:00:05;15.70;99.90
1107;DHT22;540;49.448;8.612;2022-10-15T01:02:34;15.60;99.90
1107;DHT22;540;49.448;8.612;2022-10-15T01:05:03;15.70;99.90
1107;DHT22;540;49.448;8.612;2022-10-15T01:07:31;15.60;99.90
1107;DHT22;540;49.448;8.612;2022-10-15T01:09:59;15.60;99.90
1107;DHT22;540;49.448;8.612;2022-10-15T01:12:38;15.90;99.90
1107;DHT22;540;49.448;8.612;2022-10-15T01:15:15;15.60;99.90
1107;DHT22;540;49.448;8.612;2022-10-15T01:17:47;15.90;99.90
1107;DHT22;540;49.448;8.612;2022-10-15T01:23:58;15.90;99.90
1107;DHT22;540;49.448;8.612;2022-10-15T01:33:13;15.70;99.90
1107;DHT22;540;49.448;8.612;2022-10-15T01:35:47;15.90;99.90
1107;DHT22;540;49.448;8.612;2022-10-15T01:38:29;15.80;99.90
1107;DHT22;540;49.448;8.612;2022-10-15T01:41:04;15.90;99.90
1107;DHT22;540;49.448;8.612;2022-10-15T01:43:37;15.80;99.90
1107;DHT22;540;49.448;8.612;2022-10-15T01:46:07;15.80;99.90
1107;DHT22;540;49.448;8.612;2022-10-15T01:48:39;16.10;99.90
1107;DHT22;540;49.448;8.612;2022-10-15T01:51:10;16.00;99.90
1107;DHT22;540;49.448;8.612;2022-10-15T01:53:39;16.10;99.90
1107;DHT22;540;49.448;8.612;2022-10-15T01:56:13;15.80;99.90
1107;DHT22;540;49.448;8.612;2022-10-15T01:58:43;16.20;99.90
1107;DHT22;540;49.448;8.612;2022-10-15T02:01:12;16.00;99.90
1107;DHT22;540;49.448;8.612;2022-10-15T02:03:45;16.10;99.90
1107;DHT22;540;49.448;8.612;2022-10-15T02:06:18;16.30;99.90
1107;DHT22;540;49.448;8.612;2022-10-15T02:09:00;16.10;99.90
1107;DHT22;540;49.448;8.612;2022-10-15T02:11:39;15.90;99.90
1107;DHT22;540;49.448;8.612;2022-10-15T02:14:15;16.20;99.90
1107;DHT22;540;49.448;8.612;2022-10-15T02:16:50;16.00;99.90
1107;DHT22;540;49.448;8.612;2022-10-15T02:19:27;16.00;99.90
1107;DHT22;540;49.448;8.612;2022-10-15T02:22:01;16.20;99.90
1107;DHT22;540;49.448;8.612;2022-10-15T02:24:33;16.20;99.90
1107;DHT22;540;49.448;8.612;2022-10-15T02:27:02;16.00;99.90
1107;DHT22;540;49.448;8.612;2022-10-15T02:29:32;16.30;99.90
1107;DHT22;540;49.448;8.612;2022-10-15T02:32:04;16.00;99.90
1107;DHT22;540;49.448;8.612;2022-10-15T02:34:34;16.20;99.90
1107;DHT22;540;49.448;8.612;2022-10-15T02:37:04;16.20;99.90
1107;DHT22;540;49.448;8.612;2022-10-15T02:39:33;16.20;99.90
1107;DHT22;540;49.448;8.612;2022-10-15T02:42:00;16.30;99.90
1107;DHT22;540;49.448;8.612;2022-10-15T02:44:28;15.90;99.90
1107;DHT22;540;49.448;8.612;2022-10-15T02:46:57;16.40;99.90
1107;DHT22;540;49.448;8.612;2022-10-15T02:49:25;16.00;99.90
1107;DHT22;540;49.448;8.612;2022-10-15T02:51:54;16.10;99.90
1107;DHT22;540;49.448;8.612;2022-10-15T02:54:22;16.30;99.90
1107;DHT22;540;49.448;8.612;2022-10-15T02:56:50;16.40;99.90
1107;DHT22;540;49.448;8.612;2022-10-15T02:59:18;16.10;99.90
1107;DHT22;540;49.448;8.612;2022-10-15T03:01:45;16.00;99.90
1107;DHT22;540;49.448;8.612;2022-10-15T03:04:13;16.10;99.90
1107;DHT22;540;49.448;8.612;2022-10-15T03:06:41;16.10;99.90
1107;DHT22;540;49.448;8.612;2022-10-15T03:09:10;16.20;99.90
1107;DHT22;540;49.448;8.612;2022-10-15T03:11:38;16.10;99.90
1107;DHT22;540;49.448;8.612;2022-10-15T03:14:05;16.30;99.90
1107;DHT22;540;49.448;8.612;2022-10-15T03:16:33;16.30;99.90
1107;DHT22;540;49.448;8.612;2022-10-15T03:19:01;16.30;99.90
1107;DHT22;540;49.448;8.612;2022-10-15T03:21:29;16.30;99.90
1107;DHT22;540;49.448;8.612;2022-10-15T03:23:56;16.20;99.90
1107;DHT22;540;49.448;8.612;2022-10-15T03:26:26;16.20;99.90
1107;DHT22;540;49.448;8.612;2022-10-15T03:28:53;16.30;99.90
1107;DHT22;540;49.448;8.612;2022-10-15T03:31:21;16.00;99.90
1107;DHT22;540;49.448;8.612;2022-10-15T03:33:49;16.30;99.90
1107;DHT22;540;49.448;8.612;2022-10-15T03:36:17;16.20;99.90
1107;DHT22;540;49.448;8.612;2022-10-15T03:38:44;16.30;99.90
1107;DHT22;540;49.448;8.612;2022-10-15T03:41:12;16.30;99.90
1107;DHT22;540;49.448;8.612;2022-10-15T03:43:41;16.30;99.90
1107;DHT22;540;49.448;8.612;2022-10-15T03:46:09;16.50;99.90
1107;DHT22;540;49.448;8.612;2022-10-15T03:48:37;16.40;99.90
1107;DHT22;540;49.448;8.612;2022-10-15T03:51:05;16.10;99.90
1107;DHT22;540;49.448;8.612;2022-10-15T03:53:32;16.40;99.90
1107;DHT22;540;49.448;8.612;2022-10-15T03:56:02;16.40;99.90
1107;DHT22;540;49.448;8.612;2022-10-15T03:58:30;16.30;99.90
1107;DHT22;540;49.448;8.612;2022-10-15T04:00:59;16.40;99.90
1107;DHT22;540;49.448;8.612;2022-10-15T04:03:27;16.30;99.90
1107;DHT22;540;49.448;8.612;2022-10-15T04:05:55;16.60;99.90
1107;DHT22;540;49.448;8.612;2022-10-15T04:08:28;16.60;99.90
1107;DHT22;540;49.448;8.612;2022-10-15T04:10:56;16.70;99.90
1107;DHT22;540;49.448;8.612;2022-10-15T04:13:24;16.30;99.90
1107;DHT22;540;49.448;8.612;2022-10-15T04:15:52;16.50;99.90
1107;DHT22;540;49.448;8.612;2022-10-15T04:18:23;16.40;99.90
1107;DHT22;540;49.448;8.612;2022-10-15T04:20:50;16.60;99.90
1107;DHT22;540;49.448;8.612;2022-10-15T04:23:18;16.30;99.90
1107;DHT22;540;49.448;8.612;2022-10-15T04:25:46;16.70;99.90
1107;DHT22;540;49.448;8.612;2022-10-15T04:28:13;16.40;99.90
1107;DHT22;540;49.448;8.612;2022-10-15T04:30:41;16.30;99.90
1107;DHT22;540;49.448;8.612;2022-10-15T04:33:09;16.60;99.90
1107;DHT22;540;49.448;8.612;2022-10-15T04:35:38;16.70;99.90
1107;DHT22;540;49.448;8.612;2022-10-15T04:38:06;16.60;99.90
1107;DHT22;540;49.448;8.612;2022-10-15T04:40:34;16.60;99.90
1107;DHT22;540;49.448;8.612;2022-10-15T04:43:01;16.60;99.90
1107;DHT22;540;49.448;8.612;2022-10-15T04:45:31;16.50;99.90
1107;DHT22;540;49.448;8.612;2022-10-15T04:47:58;16.50;99.90
1107;DHT22;540;49.448;8.612;2022-10-15T04:50:26;16.50;99.90
1107;DHT22;540;49.448;8.612;2022-10-15T04:52:55;16.70;99.90
1107;DHT22;540;49.448;8.612;2022-10-15T04:55:23;16.60;99.90
1107;DHT22;540;49.448;8.612;2022-10-15T04:57:51;16.50;99.90
1107;DHT22;540;49.448;8.612;2022-10-15T05:00:20;16.60;99.90
1107;DHT22;540;49.448;8.612;2022-10-15T05:02:48;16.60;99.90
1107;DHT22;540;49.448;8.612;2022-10-15T05:05:15;16.60;99.90
1107;DHT22;540;49.448;8.612;2022-10-15T05:07:43;16.40;99.90
1107;DHT22;540;49.448;8.612;2022-10-15T05:10:12;16.60;99.90
1107;DHT22;540;49.448;8.612;2022-10-15T05:12:40;16.80;99.90
1107;DHT22;540;49.448;8.612;2022-10-15T05:15:08;16.70;99.90
1107;DHT22;540;49.448;8.612;2022-10-15T05:17:36;16.60;99.90
1107;DHT22;540;49.448;8.612;2022-10-15T05:20:05;16.50;99.90
1107;DHT22;540;49.448;8.612;2022-10-15T05:22:32;16.70;99.90
1107;DHT22;540;49.448;8.612;2022-10-15T05:25:00;16.60;99.90
1107;DHT22;540;49.448;8.612;2022-10-15T05:27:29;16.60;99.90
1107;DHT22;540;49.448;8.612;2022-10-15T05:29:57;16.60;99.90
1107;DHT22;540;49.448;8.612;2022-10-15T05:32:25;16.70;99.90
1107;DHT22;540;49.448;8.612;2022-10-15T05:34:53;16.10;99.90
1107;DHT22;540;49.448;8.612;2022-10-15T05:37:20;16.70;99.90
1107;DHT22;540;49.448;8.612;2022-10-15T05:39:48;16.50;99.90
1107;DHT22;540;49.448;8.612;2022-10-15T05:42:16;16.90;99.90
1107;DHT22;540;49.448;8.612;2022-10-15T05:44:45;16.70;99.90
1107;DHT22;540;49.448;8.612;2022-10-15T05:47:13;16.40;99.90
1107;DHT22;540;49.448;8.612;2022-10-15T05:49:41;16.50;99.90
1107;DHT22;540;49.448;8.612;2022-10-15T05:52:09;16.80;99.90
1107;DHT22;540;49.448;8.612;2022-10-15T05:54:36;16.40;99.90
1107;DHT22;540;49.448;8.612;2022-10-15T05:57:04;16.50;99.90
1107;DHT22;540;49.448;8.612;2022-10-15T05:59:32;16.30;99.90
1107;DHT22;540;49.448;8.612;2022-10-15T06:02:01;16.30;99.90
1107;DHT22;540;49.448;8.612;2022-10-15T06:04:29;16.60;99.90
1107;DHT22;540;49.448;8.612;2022-10-15T06:07:01;16.40;99.90
1107;DHT22;540;49.448;8.612;2022-10-15T06:09:29;16.70;99.90
1107;DHT22;540;49.448;8.612;2022-10-15T06:11:56;16.70;99.90
1107;DHT22;540;49.448;8.612;2022-10-15T06:14:24;16.40;99.90
1107;DHT22;540;49.448;8.612;2022-10-15T06:16:52;16.70;99.90
1107;DHT22;540;49.448;8.612;2022-10-15T06:19:21;16.80;99.90
1107;DHT22;540;49.448;8.612;2022-10-15T06:21:49;16.70;99.90
1107;DHT22;540;49.448;8.612;2022-10-15T06:24:17;16.60;99.90
1107;DHT22;540;49.448;8.612;2022-10-15T06:26:45;16.80;99.90
1107;DHT22;540;49.448;8.612;2022-10-15T06:29:13;16.90;99.90
1107;DHT22;540;49.448;8.612;2022-10-15T06:31:40;16.70;99.90
1107;DHT22;540;49.448;8.612;2022-10-15T06:34:08;16.90;99.90
1107;DHT22;540;49.448;8.612;2022-10-15T06:36:38;16.60;99.90
1107;DHT22;540;49.448;8.612;2022-10-15T06:39:05;16.80;99.90
1107;DHT22;540;49.448;8.612;2022-10-15T06:41:33;16.70;99.90
1107;DHT22;540;49.448;8.612;2022-10-15T06:44:01;16.70;99.90
1107;DHT22;540;49.448;8.612;2022-10-15T06:46:28;16.60;99.90
1107;DHT22;540;49.448;8.612;2022-10-15T06:48:56;16.60;99.90
1107;DHT22;540;49.448;8.612;2022-10-15T06:51:24;16.80;99.90
1107;DHT22;540;49.448;8.612;2022-10-15T06:53:53;16.70;99.90
1107;DHT22;540;49.448;8.612;2022-10-15T06:56:21;16.90;99.90
1107;DHT22;540;49.448;8.612;2022-10-15T06:58:48;16.40;99.90
1107;DHT22;540;49.448;8.612;2022-10-15T07:01:16;16.60;99.90
1107;DHT22;540;49.448;8.612;2022-10-15T07:03:44;16.70;99.90
1107;DHT22;540;49.448;8.612;2022-10-15T07:06:15;16.90;99.90
1107;DHT22;540;49.448;8.612;2022-10-15T07:08:42;16.60;99.90
1107;DHT22;540;49.448;8.612;2022-10-15T07:11:12;16.80;99.90
1107;DHT22;540;49.448;8.612;2022-10-15T07:13:40;16.80;99.90
1107;DHT22;540;49.448;8.612;2022-10-15T07:16:11;16.80;99.90
1107;DHT22;540;49.448;8.612;2022-10-15T07:18:39;16.60;99.90
1107;DHT22;540;49.448;8.612;2022-10-15T07:21:07;16.80;99.90
1107;DHT22;540;49.448;8.612;2022-10-15T07:23:36;16.90;99.90
1107;DHT22;540;49.448;8.612;2022-10-15T07:26:04;16.80;99.90
1107;DHT22;540;49.448;8.612;2022-10-15T07:28:33;16.40;99.90
1107;DHT22;540;49.448;8.612;2022-10-15T07:31:03;16.90;99.90
1107;DHT22;540;49.448;8.612;2022-10-15T07:33:31;16.80;99.90
1107;DHT22;540;49.448;8.612;2022-10-15T07:36:02;16.90;99.90
1107;DHT22;540;49.448;8.612;2022-10-15T07:38:30;16.70;99.90
1107;DHT22;540;49.448;8.612;2022-10-15T07:40:58;17.00;99.90
1107;DHT22;540;49.448;8.612;2022-10-15T07:43:26;16.40;99.90
1107;DHT22;540;49.448;8.612;2022-10-15T07:45:55;16.80;99.90
1107;DHT22;540;49.448;8.612;2022-10-15T07:48:23;16.80;99.90
1107;DHT22;540;49.448;8.612;2022-10-15T07:50:54;16.90;99.90
1107;DHT22;540;49.448;8.612;2022-10-15T07:53:22;16.70;99.90
1107;DHT22;540;49.448;8.612;2022-10-15T07:55:50;16.70;99.90
1107;DHT22;540;49.448;8.612;2022-10-15T07:58:18;16.90;99.90
1107;DHT22;540;49.448;8.612;2022-10-15T08:00:45;16.80;99.90
1107;DHT22;540;49.448;8.612;2022-10-15T08:03:14;17.00;99.90
1107;DHT22;540;49.448;8.612;2022-10-15T08:05:42;17.00;99.90
1107;DHT22;540;49.448;8.612;2022-10-15T08:08:10;16.80;99.90
1107;DHT22;540;49.448;8.612;2022-10-15T08:10:38;17.10;99.90
1107;DHT22;540;49.448;8.612;2022-10-15T08:13:05;16.50;99.90
1107;DHT22;540;49.448;8.612;2022-10-15T08:15:33;17.00;99.90
1107;DHT22;540;49.448;8.612;2022-10-15T08:18:01;17.00;99.90
1107;DHT22;540;49.448;8.612;2022-10-15T08:20:30;17.00;99.90
1107;DHT22;540;49.448;8.612;2022-10-15T08:22:58;17.10;99.90
1107;DHT22;540;49.448;8.612;2022-10-15T08:25:26;17.00;99.90
1107;DHT22;540;49.448;8.612;2022-10-15T08:27:54;17.50;99.90
1107;DHT22;540;49.448;8.612;2022-10-15T08:30:22;17.50;99.90
1107;DHT22;540;49.448;8.612;2022-10-15T08:32:49;17.40;99.90
1107;DHT22;540;49.448;8.612;2022-10-15T08:35:17;17.30;99.90
1107;DHT22;540;49.448;8.612;2022-10-15T08:37:46;17.40;99.90
1107;DHT22;540;49.448;8.612;2022-10-15T08:40:15;17.30;99.90
1107;DHT22;540;49.448;8.612;2022-10-15T08:42:44;17.10;99.90
1107;DHT22;540;49.448;8.612;2022-10-15T08:45:16;17.20;99.90
1107;DHT22;540;49.448;8.612;2022-10-15T08:47:47;17.10;99.90
1107;DHT22;540;49.448;8.612;2022-10-15T08:50:22;17.00;99.90
1107;DHT22;540;49.448;8.612;2022-10-15T08:52:55;17.10;99.90
1107;DHT22;540;49.448;8.612;2022-10-15T08:55:28;17.20;99.90
1107;DHT22;540;49.448;8.612;2022-10-15T08:58:01;17.30;99.90
1107;DHT22;540;49.448;8.612;2022-10-15T09:00:35;17.10;99.90
1107;DHT22;540;49.448;8.612;2022-10-15T09:03:12;17.10;99.90
1107;DHT22;540;49.448;8.612;2022-10-15T09:05:47;17.00;99.90
1107;DHT22;540;49.448;8.612;2022-10-15T09:08:22;16.90;99.90
1107;DHT22;540;49.448;8.612;2022-10-15T09:10:56;17.20;99.90
1107;DHT22;540;49.448;8.612;2022-10-15T09:13:27;16.90;99.90
1107;DHT22;540;49.448;8.612;2022-10-15T09:16:00;16.90;99.90
1107;DHT22;540;49.448;8.612;2022-10-15T09:18:33;16.80;99.90
1107;DHT22;540;49.448;8.612;2022-10-15T09:21:03;16.90;99.90
1107;DHT22;540;49.448;8.612;2022-10-15T09:23:33;17.00;99.90
1107;DHT22;540;49.448;8.612;2022-10-15T09:26:05;16.80;99.90
1107;DHT22;540;49.448;8.612;2022-10-15T09:28:38;17.00;99.90
1107;DHT22;540;49.448;8.612;2022-10-15T09:31:13;17.10;99.90
1107;DHT22;540;49.448;8.612;2022-10-15T09:33:47;17.10;99.90
1107;DHT22;540;49.448;8.612;2022-10-15T09:36:25;17.20;99.90
1107;DHT22;540;49.448;8.612;2022-10-15T09:39:03;17.10;99.90
1107;DHT22;540;49.448;8.612;2022-10-15T09:41:47;17.00;99.90
1107;DHT22;540;49.448;8.612;2022-10-15T09:44:22;17.00;99.90
1107;DHT22;540;49.448;8.612;2022-10-15T09:46:50;16.80;99.90
1107;DHT22;540;49.448;8.612;2022-10-15T09:49:22;16.90;99.90
1107;DHT22;540;49.448;8.612;2022-10-15T09:51:56;17.00;99.90
1107;DHT22;540;49.448;8.612;2022-10-15T09:54:35;16.90;99.90
1107;DHT22;540;49.448;8.612;2022-10-15T09:57:07;17.10;99.90
1107;DHT22;540;49.448;8.612;2022-10-15T09:59:36;17.40;99.90
1107;DHT22;540;49.448;8.612;2022-10-15T10:02:17;17.30;99.90
1107;DHT22;540;49.448;8.612;2022-10-15T10:04:45;17.30;99.90
1107;DHT22;540;49.448;8.612;2022-10-15T10:07:28;17.30;99.90
1107;DHT22;540;49.448;8.612;2022-10-15T10:10:00;17.30;99.90
1107;DHT22;540;49.448;8.612;2022-10-15T10:12:31;17.40;99.90
1107;DHT22;540;49.448;8.612;2022-10-15T10:15:03;17.50;99.90
1107;DHT22;540;49.448;8.612;2022-10-15T10:17:32;17.30;99.90
1107;DHT22;540;49.448;8.612;2022-10-15T10:20:18;17.50;99.90
1107;DHT22;540;49.448;8.612;2022-10-15T10:22:48;17.50;99.90
1107;DHT22;540;49.448;8.612;2022-10-15T10:25:32;17.20;99.90
1107;DHT22;540;49.448;8.612;2022-10-15T10:28:13;17.50;99.90
1107;DHT22;540;49.448;8.612;2022-10-15T10:30:52;17.50;99.90
1107;DHT22;540;49.448;8.612;2022-10-15T10:33:27;17.80;99.90
1107;DHT22;540;49.448;8.612;2022-10-15T10:35:56;18.00;99.90
1107;DHT22;540;49.448;8.612;2022-10-15T10:38:25;17.70;99.90
1107;DHT22;540;49.448;8.612;2022-10-15T10:40:57;17.80;99.90
1107;DHT22;540;49.448;8.612;2022-10-15T10:43:31;17.70;99.90
1107;DHT22;540;49.448;8.612;2022-10-15T10:46:16;18.00;99.90
1107;DHT22;540;49.448;8.612;2022-10-15T10:48:46;18.20;99.90
1107;DHT22;540;49.448;8.612;2022-10-15T10:51:16;18.30;99.90
1107;DHT22;540;49.448;8.612;2022-10-15T10:53:49;18.10;99.90
1107;DHT22;540;49.448;8.612;2022-10-15T10:56:22;18.40;99.90
1107;DHT22;540;49.448;8.612;2022-10-15T10:58:57;18.10;99.90
1107;DHT22;540;49.448;8.612;2022-10-15T11:01:26;18.20;99.90
1107;DHT22;540;49.448;8.612;2022-10-15T11:03:54;18.70;99.90
1107;DHT22;540;49.448;8.612;2022-10-15T11:06:45;18.80;99.90
1107;DHT22;540;49.448;8.612;2022-10-15T11:09:29;18.90;99.90
1107;DHT22;540;49.448;8.612;2022-10-15T11:12:13;18.90;99.90
1107;DHT22;540;49.448;8.612;2022-10-15T11:14:49;19.00;99.90
1107;DHT22;540;49.448;8.612;2022-10-15T11:17:22;18.90;99.90
1107;DHT22;540;49.448;8.612;2022-10-15T11:19:56;18.40;99.90
1107;DHT22;540;49.448;8.612;2022-10-15T11:22:55;18.70;99.90
1107;DHT22;540;49.448;8.612;2022-10-15T11:25:31;18.60;99.90
1107;DHT22;540;49.448;8.612;2022-10-15T11:28:17;18.90;99.90
1107;DHT22;540;49.448;8.612;2022-10-15T11:30:51;18.40;99.90
1107;DHT22;540;49.448;8.612;2022-10-15T11:33:41;18.50;99.90
1107;DHT22;540;49.448;8.612;2022-10-15T11:36:25;18.40;99.90
1107;DHT22;540;49.448;8.612;2022-10-15T11:39:02;18.40;99.90
1107;DHT22;540;49.448;8.612;2022-10-15T11:41:43;18.50;99.90
1107;DHT22;540;49.448;8.612;2022-10-15T11:44:34;18.40;99.90
1107;DHT22;540;49.448;8.612;2022-10-15T11:47:20;18.70;99.90
1107;DHT22;540;49.448;8.612;2022-10-15T11:50:03;18.20;99.90
1107;DHT22;540;49.448;8.612;2022-10-15T11:52:46;18.70;99.90
1107;DHT22;540;49.448;8.612;2022-10-15T11:55:18;18.70;99.90
1107;DHT22;540;49.448;8.612;2022-10-15T11:57:49;18.20;99.90
1107;DHT22;540;49.448;8.612;2022-10-15T12:00:29;18.70;99.90
1107;DHT22;540;49.448;8.612;2022-10-15T12:03:01;18.80;99.90
1107;DHT22;540;49.448;8.612;2022-10-15T12:05:34;18.70;99.90
1107;DHT22;540;49.448;8.612;2022-10-15T12:08:02;18.40;99.90
1107;DHT22;540;49.448;8.612;2022-10-15T12:10:52;18.70;99.90
1107;DHT22;540;49.448;8.612;2022-10-15T12:13:27;18.40;99.90
1107;DHT22;540;49.448;8.612;2022-10-15T12:16:11;18.10;99.90
1107;DHT22;540;49.448;8.612;2022-10-15T12:18:44;18.40;99.90
1107;DHT22;540;49.448;8.612;2022-10-15T12:21:30;18.20;99.90
1107;DHT22;540;49.448;8.612;2022-10-15T12:23:58;18.20;99.90
1107;DHT22;540;49.448;8.612;2022-10-15T12:26:28;18.30;99.90
1107;DHT22;540;49.448;8.612;2022-10-15T12:28:59;18.10;99.90
1107;DHT22;540;49.448;8.612;2022-10-15T12:31:49;18.10;99.90
1107;DHT22;540;49.448;8.612;2022-10-15T12:34:30;18.30;99.90
1107;DHT22;540;49.448;8.612;2022-10-15T12:37:04;18.20;99.90
1107;DHT22;540;49.448;8.612;2022-10-15T12:39:36;18.00;99.90
1107;DHT22;540;49.448;8.612;2022-10-15T12:42:22;17.70;99.90
1107;DHT22;540;49.448;8.612;2022-10-15T12:44:53;18.30;99.90
1107;DHT22;540;49.448;8.612;2022-10-15T12:47:48;18.30;99.90
1107;DHT22;540;49.448;8.612;2022-10-15T12:50:19;18.50;99.90
1107;DHT22;540;49.448;8.612;2022-10-15T12:52:56;18.30;99.90
1107;DHT22;540;49.448;8.612;2022-10-15T12:55:27;18.50;99.90
1107;DHT22;540;49.448;8.612;2022-10-15T12:58:01;18.30;99.90
1107;DHT22;540;49.448;8.612;2022-10-15T13:00:40;18.50;99.90
1107;DHT22;540;49.448;8.612;2022-10-15T13:06:22;18.10;99.90
1107;DHT22;540;49.448;8.612;2022-10-15T13:08:53;18.40;99.90
1107;DHT22;540;49.448;8.612;2022-10-15T13:11:24;18.30;99.90
1107;DHT22;540;49.448;8.612;2022-10-15T13:13:57;18.10;99.90
1107;DHT22;540;49.448;8.612;2022-10-15T13:16:26;18.00;99.90
1107;DHT22;540;49.448;8.612;2022-10-15T13:18:55;18.20;99.90
1107;DHT22;540;49.448;8.612;2022-10-15T13:21:46;17.90;99.90
1107;DHT22;540;49.448;8.612;2022-10-15T13:24:16;17.90;99.90
1107;DHT22;540;49.448;8.612;2022-10-15T13:26:44;17.80;99.90
1107;DHT22;540;49.448;8.612;2022-10-15T13:29:15;17.70;99.90
1107;DHT22;540;49.448;8.612;2022-10-15T13:31:43;17.40;99.90
1107;DHT22;540;49.448;8.612;2022-10-15T13:34:23;17.50;99.90
1107;DHT22;540;49.448;8.612;2022-10-15T13:36:52;17.60;99.90
1107;DHT22;540;49.448;8.612;2022-10-15T13:39:29;17.40;99.90
1107;DHT22;540;49.448;8.612;2022-10-15T13:42:07;17.70;99.90
1107;DHT22;540;49.448;8.612;2022-10-15T13:44:35;17.80;99.90
1107;DHT22;540;49.448;8.612;2022-10-15T13:47:22;17.90;99.90
1107;DHT22;540;49.448;8.612;2022-10-15T13:50:09;18.00;99.90
1107;DHT22;540;49.448;8.612;2022-10-15T13:52:38;17.90;99.90
1107;DHT22;540;49.448;8.612;2022-10-15T13:55:18;18.20;99.90
1107;DHT22;540;49.448;8.612;2022-10-15T13:57:47;18.20;99.90
1107;DHT22;540;49.448;8.612;2022-10-15T14:00:24;18.00;99.90
1107;DHT22;540;49.448;8.612;2022-10-15T14:03:11;18.20;99.90
1107;DHT22;540;49.448;8.612;2022-10-15T14:05:41;18.00;99.90
1107;DHT22;540;49.448;8.612;2022-10-15T14:08:18;18.20;99.90
1107;DHT22;540;49.448;8.612;2022-10-15T14:10:47;17.80;99.90
1107;DHT22;540;49.448;8.612;2022-10-15T14:13:15;18.10;99.90
1107;DHT22;540;49.448;8.612;2022-10-15T14:15:47;17.90;99.90
1107;DHT22;540;49.448;8.612;2022-10-15T14:18:17;17.80;99.90
1107;DHT22;540;49.448;8.612;2022-10-15T14:20:46;18.10;99.90
1107;DHT22;540;49.448;8.612;2022-10-15T14:23:19;18.10;99.90
1107;DHT22;540;49.448;8.612;2022-10-15T14:25:52;17.80;99.90
1107;DHT22;540;49.448;8.612;2022-10-15T14:28:21;17.80;99.90
1107;DHT22;540;49.448;8.612;2022-10-15T14:30:50;18.20;99.90
1107;DHT22;540;49.448;8.612;2022-10-15T14:33:42;18.00;99.90
1107;DHT22;540;49.448;8.612;2022-10-15T14:36:23;17.80;99.90
1107;DHT22;540;49.448;8.612;2022-10-15T14:38:52;17.90;99.90
1107;DHT22;540;49.448;8.612;2022-10-15T14:41:24;17.80;99.90
1107;DHT22;540;49.448;8.612;2022-10-15T14:44:04;18.00;99.90
1107;DHT22;540;49.448;8.612;2022-10-15T14:46:36;17.60;99.90
1107;DHT22;540;49.448;8.612;2022-10-15T14:49:18;17.90;99.90
1107;DHT22;540;49.448;8.612;2022-10-15T14:52:00;17.60;99.90
1107;DHT22;540;49.448;8.612;2022-10-15T14:54:34;17.70;99.90
1107;DHT22;540;49.448;8.612;2022-10-15T14:57:03;17.60;99.90
1107;DHT22;540;49.448;8.612;2022-10-15T14:59:35;18.00;99.90
1107;DHT22;540;49.448;8.612;2022-10-15T15:02:05;17.60;99.90
1107;DHT22;540;49.448;8.612;2022-10-15T15:04:40;17.60;99.90
1107;DHT22;540;49.448;8.612;2022-10-15T15:07:15;17.80;99.90
1107;DHT22;540;49.448;8.612;2022-10-15T15:09:48;17.70;99.90
1107;DHT22;540;49.448;8.612;2022-10-15T15:12:22;17.80;99.90
1107;DHT22;540;49.448;8.612;2022-10-15T15:14:53;17.70;99.90
1107;DHT22;540;49.448;8.612;2022-10-15T15:17:23;17.80;99.90
1107;DHT22;540;49.448;8.612;2022-10-15T15:19:52;17.50;99.90
1107;DHT22;540;49.448;8.612;2022-10-15T15:22:26;17.50;99.90
1107;DHT22;540;49.448;8.612;2022-10-15T15:24:55;17.60;99.90
1107;DHT22;540;49.448;8.612;2022-10-15T15:27:25;17.50;99.90
1107;DHT22;540;49.448;8.612;2022-10-15T15:29:54;17.50;99.90
1107;DHT22;540;49.448;8.612;2022-10-15T15:32:23;17.80;99.90
1107;DHT22;540;49.448;8.612;2022-10-15T15:34:52;17.70;99.90
1107;DHT22;540;49.448;8.612;2022-10-15T15:37:23;17.60;99.90
1107;DHT22;540;49.448;8.612;2022-10-15T15:39:51;17.90;99.90
1107;DHT22;540;49.448;8.612;2022-10-15T15:42:21;17.70;99.90
1107;DHT22;540;49.448;8.612;2022-10-15T15:44:50;17.60;99.90
1107;DHT22;540;49.448;8.612;2022-10-15T15:47:17;17.50;99.90
1107;DHT22;540;49.448;8.612;2022-10-15T15:49:45;17.60;99.90
1107;DHT22;540;49.448;8.612;2022-10-15T15:52:13;17.70;99.90
1107;DHT22;540;49.448;8.612;2022-10-15T15:54:45;17.30;99.90
1107;DHT22;540;49.448;8.612;2022-10-15T15:57:13;17.30;99.90
1107;DHT22;540;49.448;8.612;2022-10-15T15:59:41;17.70;99.90
1107;DHT22;540;49.448;8.612;2022-10-15T16:02:09;17.70;99.90
1107;DHT22;540;49.448;8.612;2022-10-15T16:04:38;17.50;99.90
1107;DHT22;540;49.448;8.612;2022-10-15T16:07:05;17.50;99.90
1107;DHT22;540;49.448;8.612;2022-10-15T16:09:38;17.50;99.90
1107;DHT22;540;49.448;8.612;2022-10-15T16:12:08;17.40;99.90
1107;DHT22;540;49.448;8.612;2022-10-15T16:14:35;17.50;99.90
1107;DHT22;540;49.448;8.612;2022-10-15T16:17:03;17.60;99.90
1107;DHT22;540;49.448;8.612;2022-10-15T16:19:31;17.20;99.90
1107;DHT22;540;49.448;8.612;2022-10-15T16:21:58;17.20;99.90
1107;DHT22;540;49.448;8.612;2022-10-15T16:24:26;17.30;99.90
1107;DHT22;540;49.448;8.612;2022-10-15T16:26:54;17.20;99.90
1107;DHT22;540;49.448;8.612;2022-10-15T16:29:23;17.20;99.90
1107;DHT22;540;49.448;8.612;2022-10-15T16:31:51;17.30;99.90
1107;DHT22;540;49.448;8.612;2022-10-15T16:34:18;17.40;99.90
1107;DHT22;540;49.448;8.612;2022-10-15T16:36:46;17.20;99.90
1107;DHT22;540;49.448;8.612;2022-10-15T16:39:14;17.40;99.90
1107;DHT22;540;49.448;8.612;2022-10-15T16:41:42;17.40;99.90
1107;DHT22;540;49.448;8.612;2022-10-15T16:44:09;17.20;99.90
1107;DHT22;540;49.448;8.612;2022-10-15T16:46:39;17.30;99.90
1107;DHT22;540;49.448;8.612;2022-10-15T16:49:08;17.50;99.90
1107;DHT22;540;49.448;8.612;2022-10-15T16:51:35;17.30;99.90
1107;DHT22;540;49.448;8.612;2022-10-15T16:54:11;17.20;99.90
1107;DHT22;540;49.448;8.612;2022-10-15T16:56:38;17.30;99.90